Time;durP1;ratioP1;P1;durP2;ratioP2;P2;SDS_P1;SDS_P2;PMS_P1;PMS_P2;Temp;Humidity;BMP_temperature;BMP_pressure;BME280_temperature;BME280_humidity;BME280_pressure;Samples;Min_cycle;Max_cycle;Signal;HPM_P1;HPM_P2
2022/02/11 00:09:05;;;;;;;35.55;15.00;;;;;;;-1.39;75.40;94071.53;5112148;28;20024;-36
2022/02/11 00:11:37;;;;;;;39.47;14.40;;;;;;;-1.53;76.19;94101.94;5111793;28;20042;-37
2022/02/11 00:14:05;;;;;;;24.98;12.93;;;;;;;-1.64;76.18;94094.31;5111801;28;20469;-35
2022/02/11 00:16:31;;;;;;;32.47;12.90;;;;;;;-1.72;76.13;94095.84;5111582;28;20031;-38
2022/02/11 00:19:00;;;;;;;26.92;12.02;;;;;;;-1.81;76.84;94095.09;5111897;28;20530;-37
2022/02/11 00:21:28;;;;;;;36.50;14.77;;;;;;;-1.78;77.12;94094.94;5111422;28;20031;-36
2022/02/11 00:23:55;;;;;;;32.25;15.75;;;;;;;-1.88;77.86;94090.72;5109308;28;20647;-39
2022/02/11 00:26:20;;;;;;;39.28;15.35;;;;;;;-1.63;77.71;94086.94;5102003;28;20031;-39
2022/02/11 00:29:48;;;;;;;32.72;15.65;;;;;;;-1.52;77.56;94089.94;5090444;28;20028;-40
2022/02/11 00:34:16;;;;;;;36.75;16.38;;;;;;;-1.37;77.54;94084.59;5109691;28;20420;-37
2022/02/11 00:37:06;;;;;;;64.68;18.27;;;;;;;-1.30;77.36;94089.72;5111066;28;20027;-39
2022/02/11 00:40:03;;;;;;;62.15;27.60;;;;;;;-1.41;77.54;94087.50;5111102;28;20110;-40
2022/02/11 01:06:18;;;;;;;30.73;15.95;;;;;;;-2.33;75.99;94088.81;5111119;28;20443;-39
2022/02/11 01:08:43;;;;;;;29.00;15.57;;;;;;;-2.29;75.34;94096.75;5110715;28;20031;-40
2022/02/11 01:11:15;;;;;;;30.52;15.75;;;;;;;-2.29;76.38;94091.34;5110598;28;20024;-40
2022/02/11 01:13:40;;;;;;;35.10;17.73;;;;;;;-2.15;75.96;94092.72;5111068;28;20100;-40
2022/02/11 01:16:11;;;;;;;35.65;16.88;;;;;;;-2.01;76.29;94092.84;5110561;28;20028;-40
2022/02/11 01:18:38;;;;;;;36.47;16.33;;;;;;;-2.09;75.42;94077.38;5110956;28;20031;-40
2022/02/11 01:21:09;;;;;;;37.92;18.08;;;;;;;-1.85;74.40;94089.09;5110852;28;20052;-40
2022/02/11 01:26:19;;;;;;;32.47;16.42;;;;;;;-2.13;73.49;94077.53;5090211;28;20402;-38
2022/02/11 01:34:44;;;;;;;27.30;15.10;;;;;;;-2.09;73.20;94070.03;5109616;28;20026;-40
2022/02/11 01:50:24;;;;;;;52.42;21.20;;;;;;;-2.04;73.67;94063.25;5114507;28;20027;-40
2022/02/11 01:56:02;;;;;;;34.83;17.92;;;;;;;-2.09;73.91;94053.03;5095729;27;20063;-40
2022/02/11 02:59:17;;;;;;;;;;;;;;;-2.41;75.43;94052.47;5093454;28;20023;-40
2022/02/11 04:53:04;;;;;;;82.65;32.40;;;;;;;-2.99;76.89;94048.34;5089156;28;20434;-40
2022/02/11 04:55:36;;;;;;;31.38;15.32;;;;;;;-3.47;74.90;94061.41;5089962;28;20099;-40
2022/02/11 05:00:47;;;;;;;18.90;9.43;;;;;;;-3.51;74.50;94060.03;5109994;28;20031;-39
2022/02/11 05:03:13;;;;;;;14.73;9.15;;;;;;;-3.49;73.40;94066.50;5110224;28;20023;-40
2022/02/11 05:05:50;;;;;;;15.45;8.50;;;;;;;-3.48;73.42;94059.13;5110420;28;20023;-39
2022/02/11 05:08:17;;;;;;;35.58;20.08;;;;;;;-3.33;72.58;94065.47;5109882;28;20039;-40
2022/02/11 05:10:43;;;;;;;36.10;19.30;;;;;;;-3.51;72.75;94052.66;5110068;28;20026;-39
2022/02/11 05:13:09;;;;;;;34.20;18.38;;;;;;;-3.67;74.19;94061.00;5110004;28;20087;-40
2022/02/11 05:15:34;;;;;;;37.13;20.40;;;;;;;-3.40;73.20;94058.41;5090365;28;20405;-39
2022/02/11 05:18:01;;;;;;;34.33;19.20;;;;;;;-3.67;73.79;94046.75;5089679;28;20674;-40
2022/02/11 05:20:26;;;;;;;36.25;18.50;;;;;;;-3.65;73.59;94031.63;5088619;28;20028;-41
2022/02/11 05:22:52;;;;;;;29.48;13.95;;;;;;;-3.50;74.71;94051.47;5100379;28;20293;-40
2022/02/11 05:25:17;;;;;;;28.13;15.07;;;;;;;-3.46;75.41;94052.09;5101174;28;20015;-37
2022/02/11 05:27:43;;;;;;;47.05;17.42;;;;;;;-3.80;76.46;94059.56;5105042;28;20043;-40
2022/02/11 05:30:09;;;;;;;36.47;20.35;;;;;;;-4.00;76.73;94055.28;5098051;28;20032;-40
2022/02/11 05:32:34;;;;;;;42.35;21.42;;;;;;;-4.11;77.48;94057.59;5094071;28;20015;-39
2022/02/11 05:35:00;;;;;;;40.00;18.00;;;;;;;-3.93;78.45;94062.38;5098821;28;20019;-38
2022/02/11 05:37:25;;;;;;;57.53;21.67;;;;;;;-3.66;78.20;94056.38;5096951;28;20052;-41
2022/02/11 05:39:51;;;;;;;51.63;23.13;;;;;;;-3.81;77.67;94066.19;5093819;28;20028;-39
2022/02/11 05:42:16;;;;;;;51.17;23.80;;;;;;;-3.95;78.18;94068.19;5106401;28;20413;-40
2022/02/11 05:44:42;;;;;;;61.67;28.17;;;;;;;-3.75;78.35;94077.91;5094931;28;20047;-40
2022/02/11 05:47:07;;;;;;;42.20;23.45;;;;;;;-3.84;78.50;94057.03;5092030;28;20016;-39
2022/02/11 05:49:33;;;;;;;37.90;19.48;;;;;;;-3.83;79.14;94068.56;5094902;28;20035;-41
2022/02/11 05:51:58;;;;;;;44.95;21.83;;;;;;;-3.77;79.28;94070.25;5110217;28;20027;-40
2022/02/11 05:54:23;;;;;;;37.65;19.35;;;;;;;-3.62;78.79;94067.78;5110163;28;20020;-39
2022/02/11 05:56:49;;;;;;;31.35;18.05;;;;;;;-3.44;77.99;94070.53;5110504;28;20023;-41
2022/02/11 05:59:16;;;;;;;48.65;22.90;;;;;;;-3.30;77.18;94064.59;5109896;28;20027;-40
2022/02/11 06:01:42;;;;;;;85.40;38.25;;;;;;;-3.26;76.76;94074.06;5110137;28;20421;-41
2022/02/11 06:04:07;;;;;;;34.35;18.50;;;;;;;-3.22;76.98;94074.69;5110040;28;20019;-39
2022/02/11 06:06:33;;;;;;;39.50;21.00;;;;;;;-3.04;76.53;94078.63;5103759;28;20036;-41
2022/02/11 06:08:58;;;;;;;48.13;23.33;;;;;;;-2.90;75.57;94075.38;5098702;28;20027;-41
2022/02/11 06:11:29;;;;;;;37.75;20.50;;;;;;;-2.80;74.77;94074.94;5104850;28;20027;-40
2022/02/11 06:13:55;;;;;;;35.95;16.65;;;;;;;-2.69;74.89;94077.97;5109939;28;20155;-41
2022/02/11 06:16:21;;;;;;;25.70;12.88;;;;;;;-2.91;74.87;94079.25;5110026;28;20656;-40
2022/02/11 06:18:46;;;;;;;41.10;20.55;;;;;;;-3.08;74.71;94084.94;5109906;28;20031;-40
2022/02/11 06:21:11;;;;;;;39.85;19.05;;;;;;;-2.90;75.39;94088.88;5110207;28;20027;-41
2022/02/11 06:23:37;;;;;;;51.78;26.65;;;;;;;-2.74;74.94;94091.31;5109770;28;20458;-41
2022/02/11 06:26:02;;;;;;;27.05;16.77;;;;;;;-2.54;74.53;94091.66;5110885;28;20032;-41
2022/02/11 06:28:28;;;;;;;49.63;23.45;;;;;;;-2.48;73.48;94093.31;5114015;28;20120;-41
2022/02/11 06:30:53;;;;;;;43.97;23.23;;;;;;;-2.35;72.88;94101.28;5112281;28;20027;-41
2022/02/11 06:33:19;;;;;;;46.17;26.20;;;;;;;-2.21;72.45;94103.41;5113506;28;20024;-41
2022/02/11 06:35:45;;;;;;;48.55;25.15;;;;;;;-1.98;71.74;94104.72;5113542;28;20080;-40
2022/02/11 06:38:10;;;;;;;62.08;28.00;;;;;;;-1.81;71.86;94101.25;5113241;28;20199;-40
2022/02/11 06:40:37;;;;;;;54.22;24.20;;;;;;;-1.77;71.69;94107.25;5113750;28;20026;-40
2022/02/11 06:43:03;;;;;;;61.03;28.90;;;;;;;-2.01;71.94;94106.38;5113668;28;20031;-39
2022/02/11 06:45:29;;;;;;;107.43;47.58;;;;;;;-1.73;71.92;94096.28;5113209;28;20027;-40
2022/02/11 06:47:54;;;;;;;70.53;34.00;;;;;;;-1.54;71.71;94101.19;5113562;28;20079;-39
2022/02/11 06:50:20;;;;;;;65.60;32.20;;;;;;;-1.42;71.78;94098.75;5113339;28;20413;-38
2022/02/11 06:52:48;;;;;;;56.35;29.63;;;;;;;-1.27;71.73;94094.19;5113450;28;20020;-40
2022/02/11 06:55:14;;;;;;;69.30;34.92;;;;;;;-1.16;71.82;94084.38;5112995;28;20029;-40
2022/02/11 06:57:39;;;;;;;59.65;29.88;;;;;;;-0.98;71.79;94092.44;5113446;28;20024;-38
2022/02/11 07:00:08;;;;;;;56.33;28.35;;;;;;;-1.18;72.36;94070.53;5112948;28;20549;-39
2022/02/11 07:02:33;;;;;;;62.53;33.10;;;;;;;-1.20;74.34;94097.34;5113024;28;20034;-39
2022/02/11 07:04:59;;;;;;;245.50;120.18;;;;;;;-1.30;75.97;94089.72;5113101;28;20024;-40
2022/02/11 07:07:24;;;;;;;145.02;77.72;;;;;;;-1.24;76.33;94087.88;5099177;28;20050;-39
2022/02/11 07:09:52;;;;;;;191.95;92.50;;;;;;;-1.14;76.54;94086.63;5092557;28;20039;-39
2022/02/11 07:12:18;;;;;;;281.15;128.35;;;;;;;-0.99;76.99;94092.88;5092423;28;20020;-41
2022/02/11 07:14:43;;;;;;;131.05;65.45;;;;;;;-0.31;75.91;94088.41;5092771;28;20103;-41
2022/02/11 07:17:11;;;;;;;53.05;30.40;;;;;;;0.96;72.88;94084.47;5092624;28;20550;-41
2022/02/11 07:19:37;;;;;;;28.35;16.52;;;;;;;2.65;67.39;94083.59;5092537;28;20084;-41
2022/02/11 07:22:03;;;;;;;28.48;17.38;;;;;;;3.90;62.25;94080.69;5092669;28;20425;-41
2022/02/11 07:24:28;;;;;;;24.05;16.42;;;;;;;4.79;59.73;94080.94;5092471;28;20579;-41
2022/02/11 07:26:55;;;;;;;27.65;19.52;;;;;;;5.20;58.60;94079.97;5092434;28;20477;-42
2022/02/11 07:29:20;;;;;;;33.70;22.65;;;;;;;6.68;55.01;94076.50;5092057;28;20031;-41
2022/02/11 07:31:46;;;;;;;29.98;19.00;;;;;;;7.75;51.72;94081.41;5092341;28;20016;-41
2022/02/11 07:34:11;;;;;;;22.13;15.07;;;;;;;8.72;48.97;94064.75;5092390;28;20077;-41
2022/02/11 07:36:36;;;;;;;21.45;13.10;;;;;;;9.83;46.39;94063.72;5091855;28;20452;-41
2022/02/11 07:39:03;;;;;;;24.40;14.38;;;;;;;10.68;44.72;94064.34;5091896;28;20078;-41
2022/02/11 07:41:28;;;;;;;20.40;14.15;;;;;;;11.31;43.08;94064.66;5092198;28;20024;-42
2022/02/11 07:43:54;;;;;;;18.88;12.95;;;;;;;12.05;41.98;94062.31;5091762;28;20094;-41
2022/02/11 07:46:19;;;;;;;14.98;10.60;;;;;;;12.78;40.48;94061.75;5091894;28;20020;-42
2022/02/11 07:48:45;;;;;;;16.13;11.02;;;;;;;13.19;39.41;94058.78;5091746;28;20061;-42
2022/02/11 07:51:10;;;;;;;16.48;12.60;;;;;;;13.45;39.01;94052.91;5091974;28;20031;-42
2022/02/11 07:53:37;;;;;;;15.50;12.25;;;;;;;13.99;38.23;94059.94;5091590;28;20016;-42
2022/02/11 07:56:03;;;;;;;18.77;14.40;;;;;;;15.02;36.29;94058.03;5091872;28;20141;-43
2022/02/11 07:58:29;;;;;;;27.30;20.73;;;;;;;15.33;35.83;94055.84;5091889;28;20063;-42
2022/02/11 08:00:55;;;;;;;27.77;20.77;;;;;;;15.51;35.52;94058.16;5091504;28;20092;-42
2022/02/11 08:03:22;;;;;;;30.13;22.92;;;;;;;15.61;35.17;94050.69;5093958;28;20028;-42
2022/02/11 08:05:48;;;;;;;31.67;24.90;;;;;;;15.66;35.82;94051.75;5100594;28;20024;-42
2022/02/11 08:08:14;;;;;;;30.40;24.00;;;;;;;16.35;34.26;94053.38;5091712;28;20117;-42
2022/02/11 08:10:39;;;;;;;24.60;21.33;;;;;;;16.19;34.34;94054.09;5091322;28;20489;-41
2022/02/11 08:13:05;;;;;;;37.75;30.48;;;;;;;15.38;35.78;94049.31;5091322;28;20054;-39
2022/02/11 08:15:30;;;;;;;34.42;27.20;;;;;;;14.84;37.34;94042.53;5109137;28;20801;-37
2022/02/11 08:17:55;;;;;;;33.03;25.23;;;;;;;13.97;39.68;94050.72;5109585;28;20408;-41
2022/02/11 08:20:21;;;;;;;30.42;22.92;;;;;;;14.65;38.83;94045.78;5109880;28;20023;-41
2022/02/11 08:22:47;;;;;;;23.23;14.75;;;;;;;16.00;36.85;94046.31;5109066;28;20077;-42
2022/02/11 08:25:12;;;;;;;21.45;14.48;;;;;;;16.65;35.84;94032.88;5108692;28;20156;-41
2022/02/11 08:27:40;;;;;;;17.67;13.02;;;;;;;17.59;33.85;94048.03;5109119;28;20032;-42
2022/02/11 08:30:06;;;;;;;19.30;13.68;;;;;;;17.46;33.07;94028.81;5108376;28;20032;-41
2022/02/11 08:32:32;;;;;;;24.90;18.30;;;;;;;18.02;33.51;94043.63;5108749;28;20076;-41
2022/02/11 08:34:58;;;;;;;22.35;15.68;;;;;;;17.87;32.99;94041.06;5099882;28;20024;-41
2022/02/11 08:37:25;;;;;;;20.67;15.27;;;;;;;18.53;31.31;94042.59;5087980;28;20494;-41
2022/02/11 08:39:51;;;;;;;26.70;19.83;;;;;;;19.37;31.24;94034.78;5089035;28;20168;-41
2022/02/11 08:42:18;;;;;;;19.45;14.13;;;;;;;19.60;29.75;94029.41;5088723;28;20111;-41
2022/02/11 08:44:44;;;;;;;23.50;14.45;;;;;;;19.42;29.66;94033.75;5095335;28;20086;-41
2022/02/11 08:47:11;;;;;;;19.75;15.75;;;;;;;18.31;31.08;94024.88;5103355;28;20055;-42
2022/02/11 08:49:38;;;;;;;24.63;17.92;;;;;;;17.75;33.26;94026.94;5107945;28;20035;-41
2022/02/11 08:52:04;;;;;;;19.60;16.95;;;;;;;18.30;31.72;94026.19;5108816;28;20087;-41
2022/02/11 08:54:30;;;;;;;22.27;17.83;;;;;;;17.12;33.71;94029.69;5106270;28;20489;-41
2022/02/11 08:56:55;;;;;;;18.45;14.88;;;;;;;17.21;33.78;94026.22;5108481;28;20031;-41
2022/02/11 08:59:21;;;;;;;16.33;13.60;;;;;;;17.13;33.54;94030.41;5108343;28;20111;-41
2022/02/11 09:01:47;;;;;;;18.80;14.10;;;;;;;18.24;31.75;94022.94;5108597;28;20417;-41
2022/02/11 09:04:13;;;;;;;15.82;12.02;;;;;;;19.01;29.73;94020.97;5108987;28;20050;-41
2022/02/11 09:06:38;;;;;;;19.17;13.68;;;;;;;17.56;31.85;94024.06;5108942;28;20092;-41
2022/02/11 09:09:04;;;;;;;15.70;12.50;;;;;;;17.31;31.70;94023.47;5095575;28;20031;-41
2022/02/11 09:11:30;;;;;;;15.45;13.07;;;;;;;18.82;31.13;94020.97;5096039;28;20047;-41
2022/02/11 09:13:55;;;;;;;16.92;12.80;;;;;;;20.20;29.43;94018.88;5091540;28;20024;-41
2022/02/11 09:16:21;;;;;;;21.02;15.10;;;;;;;20.97;28.14;94023.91;5094330;28;20028;-42
2022/02/11 09:18:47;;;;;;;17.02;11.82;;;;;;;21.20;26.86;94021.25;5086702;28;20023;-42
2022/02/11 09:21:13;;;;;;;14.38;11.75;;;;;;;21.85;27.13;94012.00;5086530;28;20088;-42
2022/02/11 09:23:38;;;;;;;17.90;13.85;;;;;;;22.02;26.45;94014.44;5086731;28;20035;-41
2022/02/11 09:26:04;;;;;;;16.83;14.27;;;;;;;22.63;26.19;94008.28;5087608;28;20032;-41
2022/02/11 09:28:30;;;;;;;17.23;13.27;;;;;;;23.14;25.37;94000.63;5088293;28;20024;-41
2022/02/11 09:30:55;;;;;;;35.10;20.48;;;;;;;23.56;23.43;94004.38;5088421;28;20047;-42
2022/02/11 09:33:21;;;;;;;17.30;12.93;;;;;;;23.30;24.05;94000.81;5088051;28;20016;-42
2022/02/11 09:35:47;;;;;;;14.30;11.65;;;;;;;23.08;23.50;93991.13;5087911;28;20060;-41
2022/02/11 09:38:13;;;;;;;21.50;17.67;;;;;;;21.83;26.12;94000.59;5097668;28;20047;-42
2022/02/11 09:40:40;;;;;;;14.90;11.70;;;;;;;22.95;24.72;93997.41;5102507;28;20115;-42
2022/02/11 09:43:08;;;;;;;21.55;15.13;;;;;;;23.13;25.67;93992.81;5107540;28;20527;-42
2022/02/11 09:45:33;;;;;;;17.17;13.15;;;;;;;24.02;24.54;93975.81;5108361;28;20061;-42
2022/02/11 09:47:59;;;;;;;17.80;13.60;;;;;;;24.39;24.70;93981.28;5106880;28;20516;-41
2022/02/11 09:50:25;;;;;;;17.00;12.48;;;;;;;24.62;22.64;93975.44;5106577;28;20042;-42
2022/02/11 09:52:53;;;;;;;14.27;11.50;;;;;;;24.48;23.02;93974.72;5097134;28;20416;-41
2022/02/11 09:55:32;;;;;;;14.10;11.55;;;;;;;24.30;22.38;93985.78;5099974;28;20016;-42
2022/02/11 09:58:06;;;;;;;15.23;12.85;;;;;;;22.36;24.86;93982.72;5102961;28;20028;-42
2022/02/11 10:00:34;;;;;;;41.50;13.05;;;;;;;23.65;24.97;93975.97;5087846;28;20043;-42
2022/02/11 10:03:13;;;;;;;15.23;12.50;;;;;;;24.47;22.26;93982.44;5091752;28;20099;-42
2022/02/11 10:05:39;;;;;;;15.23;12.25;;;;;;;24.90;22.18;93976.88;5101259;28;20107;-42
2022/02/11 10:08:04;;;;;;;13.20;10.95;;;;;;;25.54;22.10;93971.53;5112160;28;20687;-42
2022/02/11 10:13:30;;;;;;;18.13;12.60;;;;;;;24.40;23.67;93972.22;5105080;27;20039;-41
2022/02/11 10:16:10;;;;;;;14.73;10.85;;;;;;;24.66;21.65;93961.53;5102481;28;20493;-41
2022/02/11 10:18:38;;;;;;;20.92;12.50;;;;;;;24.83;22.23;93958.91;5092297;28;20032;-42
2022/02/11 10:21:05;;;;;;;19.17;12.50;;;;;;;24.29;21.77;93961.03;5093787;28;20024;-42
2022/02/11 10:23:40;;;;;;;14.85;12.32;;;;;;;22.97;23.27;93960.91;5093510;28;20454;-42
2022/02/11 10:26:13;;;;;;;14.15;11.77;;;;;;;22.85;24.78;93952.50;5093811;28;20020;-42
2022/02/11 10:28:48;;;;;;;17.40;12.68;;;;;;;23.66;23.84;93945.72;5093481;28;20107;-42
2022/02/11 10:31:20;;;;;;;31.30;23.33;;;;;;;24.15;23.59;93943.38;5093554;28;20016;-42
2022/02/11 10:34:00;;;;;;;23.58;15.68;;;;;;;24.39;24.02;93936.13;5093356;28;20024;-41
2022/02/11 10:36:48;;;;;;;22.27;17.23;;;;;;;25.14;22.92;93927.19;5092866;28;20566;-42
2022/02/11 10:39:13;;;;;;;33.65;24.55;;;;;;;25.82;21.47;93923.25;5113379;28;20055;-42
2022/02/11 10:41:45;;;;;;;13.98;11.23;;;;;;;25.58;21.04;93931.38;5113768;28;20157;-41
2022/02/11 10:44:14;;;;;;;21.13;16.55;;;;;;;25.47;21.87;93921.69;5106021;28;20020;-42
2022/02/11 10:46:44;;;;;;;13.23;11.82;;;;;;;26.10;21.81;93918.88;5110878;28;20471;-42
2022/02/11 10:49:10;;;;;;;14.77;10.05;;;;;;;26.17;20.68;93909.28;5110319;28;20024;-42
2022/02/11 10:51:43;;;;;;;14.05;11.93;;;;;;;26.05;21.77;93917.94;5110284;28;20501;-41
2022/02/11 10:54:26;;;;;;;11.60;9.98;;;;;;;24.53;21.17;93906.53;5102855;28;20058;-42
2022/02/11 10:56:54;;;;;;;17.38;13.70;;;;;;;24.98;22.59;93908.72;5104959;28;20420;-41
2022/02/11 10:59:39;;;;;;;12.18;9.95;;;;;;;24.94;22.19;93900.78;5101507;28;20436;-41
2022/02/11 11:02:07;;;;;;;16.98;11.68;;;;;;;24.86;23.47;93896.84;5102254;28;20027;-42
2022/02/11 11:04:33;;;;;;;16.73;12.47;;;;;;;24.94;22.13;93897.97;5102925;28;20023;-42
2022/02/11 11:06:58;;;;;;;13.55;11.57;;;;;;;25.14;22.00;93890.47;5103537;28;20523;-42
2022/02/11 11:09:25;;;;;;;13.07;10.70;;;;;;;25.21;21.77;93894.28;5102288;28;20024;-41
2022/02/11 11:11:53;;;;;;;12.43;9.60;;;;;;;25.39;21.18;93895.88;5109369;28;20156;-42
2022/02/11 11:14:20;;;;;;;14.15;11.45;;;;;;;25.90;21.76;93884.03;5113215;28;20030;-42
2022/02/11 11:16:47;;;;;;;15.23;11.48;;;;;;;25.77;20.24;93887.69;5112884;28;20130;-42
2022/02/11 11:19:13;;;;;;;18.80;11.65;;;;;;;25.26;22.03;93879.72;5112998;28;20020;-42
2022/02/11 11:21:42;;;;;;;15.25;11.70;;;;;;;25.06;22.63;93878.75;5113094;28;20031;-41
2022/02/11 11:24:08;;;;;;;13.82;11.98;;;;;;;24.82;22.16;93861.38;5111419;28;20024;-41
2022/02/11 11:26:46;;;;;;;15.27;10.93;;;;;;;25.05;22.30;93880.13;5106697;28;20042;-41
2022/02/11 11:29:15;;;;;;;12.68;9.38;;;;;;;24.61;21.47;93867.41;5112923;28;20055;-42
2022/02/11 11:31:57;;;;;;;16.58;10.88;;;;;;;23.76;23.37;93862.38;5112655;28;20031;-42
2022/02/11 11:34:26;;;;;;;12.77;10.30;;;;;;;23.68;23.55;93866.88;5112687;28;20076;-41
2022/02/11 11:36:53;;;;;;;;;;;;;;;23.78;23.95;93854.03;5102364;28;20062;-41
2022/02/11 11:39:19;;;;;;;11.55;10.05;;;;;;;23.88;22.87;93860.22;5091889;28;19969;-42
2022/02/11 11:42:05;;;;;;;16.70;11.98;;;;;;;24.02;23.98;93855.28;5110699;28;20450;-41
2022/02/11 11:44:40;;;;;;;20.95;12.70;;;;;;;24.38;23.10;93847.19;5110375;27;20451;-42
2022/02/11 11:47:06;;;;;;;16.13;12.38;;;;;;;23.85;23.43;93846.59;5099666;28;20071;-42
2022/02/11 11:49:40;;;;;;;24.15;15.35;;;;;;;23.86;24.89;93842.44;5111431;28;20073;-42
2022/02/11 11:52:07;;;;;;;14.85;10.98;;;;;;;23.65;24.63;93840.66;5106719;28;20023;-41
2022/02/11 11:54:33;;;;;;;12.77;10.35;;;;;;;23.75;24.75;93838.38;5091860;28;20517;-42
2022/02/11 11:57:15;;;;;;;15.13;11.57;;;;;;;23.17;24.77;93832.47;5094374;28;20023;-42
2022/02/11 11:59:46;;;;;;;12.32;10.95;;;;;;;23.04;25.83;93824.72;5101856;28;20032;-41
2022/02/11 12:02:20;;;;;;;11.55;9.27;;;;;;;22.98;25.25;93821.56;5098268;28;20069;-42
2022/02/11 12:04:53;;;;;;;13.43;9.45;;;;;;;22.82;24.74;93812.25;5096812;28;20024;-42
2022/02/11 12:07:26;;;;;;;20.52;14.23;;;;;;;22.07;25.83;93810.84;5101056;28;20059;-42
2022/02/11 12:09:53;;;;;;;14.63;9.23;;;;;;;22.02;24.89;93806.38;5097024;28;20501;-42
2022/02/11 12:12:21;;;;;;;11.02;8.15;;;;;;;21.57;25.81;93805.81;5099838;28;20039;-42
2022/02/11 12:14:48;;;;;;;13.15;9.77;;;;;;;21.42;26.78;93808.41;5093078;28;20023;-41
2022/02/11 12:17:16;;;;;;;11.35;9.27;;;;;;;20.86;27.51;93800.78;5100306;28;20059;-41
2022/02/11 12:19:46;;;;;;;14.55;9.82;;;;;;;21.07;27.57;93797.91;5102080;28;20015;-42
2022/02/11 12:22:13;;;;;;;11.52;8.73;;;;;;;20.90;26.79;93792.63;5099438;28;20497;-41
2022/02/11 12:27:30;;;;;;;14.15;10.25;;;;;;;20.14;29.36;93788.50;5099566;28;20476;-41
2022/02/11 12:29:58;;;;;;;15.57;9.63;;;;;;;20.28;31.08;93797.13;5102286;28;20012;-41
2022/02/11 12:32:37;;;;;;;14.45;10.20;;;;;;;19.99;29.51;93791.75;5100643;28;20043;-41
2022/02/11 12:35:04;;;;;;;15.37;11.17;;;;;;;20.39;30.67;93788.03;5099534;28;20020;-41
2022/02/11 12:37:31;;;;;;;12.25;9.63;;;;;;;20.64;29.89;93788.19;5106134;28;20055;-41
2022/02/11 12:40:15;;;;;;;15.18;9.57;;;;;;;20.95;29.26;93782.38;5111229;28;20020;-41
2022/02/11 12:42:46;;;;;;;12.90;10.05;;;;;;;20.79;29.36;93784.91;5098805;28;20032;-42
2022/02/11 12:45:14;;;;;;;19.55;9.93;;;;;;;20.20;28.37;93779.78;5109751;28;20409;-41
2022/02/11 12:47:40;;;;;;;27.92;21.58;;;;;;;20.05;30.66;93780.94;5105992;28;20093;-41
2022/02/11 12:50:08;;;;;;;55.17;43.20;;;;;;;19.81;31.33;93776.56;5097572;28;20412;-41
2022/02/11 12:52:36;;;;;;;32.72;25.65;;;;;;;19.73;31.75;93766.91;5099704;28;20521;-41
2022/02/11 12:55:10;;;;;;;23.58;14.23;;;;;;;19.42;31.28;93775.38;5100132;28;20019;-41
2022/02/11 12:57:40;;;;;;;14.43;10.63;;;;;;;19.13;30.28;93763.56;5099944;28;20176;-41
2022/02/11 13:00:16;;;;;;;15.30;10.25;;;;;;;19.20;31.62;93766.19;5099545;28;20035;-41
2022/02/11 13:02:43;;;;;;;12.65;10.13;;;;;;;19.09;31.30;93766.84;5101064;28;20069;-41
2022/02/11 13:05:17;;;;;;;16.48;12.00;;;;;;;19.06;31.75;93762.44;5099043;28;20024;-42
2022/02/11 13:07:54;;;;;;;14.13;9.77;;;;;;;18.70;32.21;93762.75;5099977;28;20464;-42
2022/02/11 13:10:25;;;;;;;25.80;17.48;;;;;;;18.69;31.16;93752.91;5109117;28;20051;-42
2022/02/11 13:12:52;;;;;;;31.33;21.42;;;;;;;18.60;30.76;93756.47;5110951;28;20019;-42
2022/02/11 13:15:19;;;;;;;29.50;16.30;;;;;;;18.67;32.38;93749.94;5101401;28;20051;-41
2022/02/11 13:17:46;;;;;;;15.82;12.48;;;;;;;18.76;31.28;93746.38;5101457;28;20424;-41
2022/02/11 13:20:18;;;;;;;13.75;8.57;;;;;;;18.54;31.22;93745.59;5099988;28;20026;-41
2022/02/11 13:22:44;;;;;;;14.20;10.38;;;;;;;18.38;31.01;93752.84;5098977;28;20103;-41
2022/02/11 13:25:11;;;;;;;17.00;11.35;;;;;;;18.33;31.58;93755.94;5100411;28;20019;-41
2022/02/11 13:27:44;;;;;;;13.45;9.73;;;;;;;18.11;31.65;93750.25;5100963;28;20016;-41
2022/02/11 13:30:11;;;;;;;30.50;23.38;;;;;;;17.88;33.61;93752.78;5099792;28;20020;-41
2022/02/11 13:32:36;;;;;;;13.90;9.80;;;;;;;17.78;32.28;93740.16;5099782;28;20055;-41
2022/02/11 13:35:06;;;;;;;38.92;22.90;;;;;;;17.92;32.52;93755.88;5103127;28;20022;-41
2022/02/11 13:38:01;;;;;;;29.77;18.52;;;;;;;18.02;32.91;93747.47;5108467;28;20135;-40
2022/02/11 13:40:28;;;;;;;18.80;11.80;;;;;;;18.02;32.88;93748.19;5098393;28;20038;-41
2022/02/11 13:43:02;;;;;;;13.30;8.90;;;;;;;18.12;31.58;93750.97;5107118;28;20112;-41
2022/02/11 13:45:29;;;;;;;18.55;11.00;;;;;;;17.76;33.02;93749.09;5106846;28;20042;-41
2022/02/11 13:48:08;;;;;;;18.13;12.60;;;;;;;17.85;33.24;93748.38;5106803;28;20020;-42
2022/02/11 13:51:03;;;;;;;25.85;19.52;;;;;;;17.89;33.00;93745.13;5106182;28;20513;-41
2022/02/11 13:53:30;;;;;;;20.20;13.15;;;;;;;17.84;34.00;93746.16;5106288;27;20015;-41
2022/02/11 13:55:56;;;;;;;24.38;18.48;;;;;;;17.53;32.32;93748.81;5106185;27;20020;-41
2022/02/11 13:58:22;;;;;;;18.77;13.07;;;;;;;17.29;32.82;93744.22;5107489;28;20500;-41
2022/02/11 14:00:47;;;;;;;9.80;7.25;;;;;;;17.00;34.07;93741.38;5105703;28;20020;-41
2022/02/11 14:03:27;;;;;;;13.60;10.07;;;;;;;16.91;35.26;93752.53;5102401;27;20032;-42
2022/02/11 14:05:55;;;;;;;13.07;9.70;;;;;;;16.62;36.65;93755.97;5107494;28;20540;-41
2022/02/11 14:08:23;;;;;;;13.10;9.03;;;;;;;16.55;36.90;93754.00;5106090;28;20516;-42
2022/02/11 14:11:07;;;;;;;12.27;7.78;;;;;;;16.54;35.54;93762.97;5105585;27;20441;-41
2022/02/11 14:13:33;;;;;;;11.35;8.70;;;;;;;16.66;35.16;93759.06;5104895;28;20024;-42
2022/02/11 14:15:58;;;;;;;10.00;6.97;;;;;;;16.60;35.25;93750.22;5108317;28;20048;-41
2022/02/11 14:18:24;;;;;;;9.50;7.15;;;;;;;16.58;36.11;93752.88;5105614;27;20417;-41
2022/02/11 14:20:49;;;;;;;8.98;7.15;;;;;;;16.63;36.46;93754.63;5108388;27;20085;-42
2022/02/11 14:23:16;;;;;;;12.48;8.88;;;;;;;16.51;35.62;93750.91;5105407;27;20420;-41
2022/02/11 14:25:43;;;;;;;13.55;9.60;;;;;;;16.29;36.67;93751.22;5106760;27;20020;-41
2022/02/11 14:28:13;;;;;;;12.77;8.32;;;;;;;16.11;36.37;93753.34;5104500;28;20496;-41
2022/02/11 14:30:42;;;;;;;15.05;9.63;;;;;;;16.03;37.47;93751.94;5104535;28;20047;-41
2022/02/11 14:33:08;;;;;;;16.80;10.25;;;;;;;16.02;37.39;93751.22;5107522;28;20015;-41
2022/02/11 14:35:34;;;;;;;12.60;8.48;;;;;;;15.82;37.08;93746.84;5107425;28;20023;-41
2022/02/11 14:37:59;;;;;;;13.27;8.02;;;;;;;15.73;37.80;93745.47;5106613;28;20120;-41
2022/02/11 14:40:25;;;;;;;14.18;10.40;;;;;;;15.59;37.87;93747.13;5112447;28;20019;-42
2022/02/11 14:42:51;;;;;;;45.83;24.92;;;;;;;15.30;37.59;93750.94;5116680;27;20031;-41
2022/02/11 14:45:16;;;;;;;32.92;18.95;;;;;;;15.27;37.51;93750.03;5099483;27;20038;-41
2022/02/11 14:47:42;;;;;;;34.30;20.65;;;;;;;15.01;38.80;93751.41;5093055;28;20028;-41
2022/02/11 14:50:08;;;;;;;29.63;17.90;;;;;;;14.95;38.42;93747.41;5093246;28;20073;-41
2022/02/11 14:52:33;;;;;;;38.70;21.38;;;;;;;14.84;38.35;93750.66;5093242;28;20031;-41
2022/02/11 14:54:59;;;;;;;11.73;8.65;;;;;;;14.49;39.44;93747.03;5093204;28;20402;-41
2022/02/11 14:57:24;;;;;;;21.15;12.15;;;;;;;14.26;39.63;93747.19;5092872;28;20028;-41
2022/02/11 14:59:50;;;;;;;37.97;20.23;;;;;;;14.14;40.10;93746.16;5092988;28;20020;-41
2022/02/11 15:02:15;;;;;;;33.00;18.90;;;;;;;14.03;40.37;93745.88;5092864;28;20405;-41
2022/02/11 15:04:41;;;;;;;16.50;11.45;;;;;;;13.98;41.75;93753.09;5092999;28;20024;-41
2022/02/11 15:07:07;;;;;;;15.05;8.70;;;;;;;13.90;42.52;93744.09;5092721;28;20028;-41
2022/02/11 15:09:33;;;;;;;15.32;8.45;;;;;;;13.92;42.35;93751.84;5092966;28;20031;-41
2022/02/11 15:11:59;;;;;;;11.93;8.55;;;;;;;13.91;42.11;93745.56;5092876;28;20042;-41
2022/02/11 15:14:26;;;;;;;9.80;6.68;;;;;;;13.82;41.96;93748.22;5092642;28;20020;-41
2022/02/11 15:16:52;;;;;;;17.45;6.47;;;;;;;13.50;42.70;93752.41;5092796;28;20031;-41
2022/02/11 15:19:18;;;;;;;10.40;6.45;;;;;;;13.10;43.05;93745.31;5092447;28;20040;-41
2022/02/11 15:21:44;;;;;;;10.05;5.82;;;;;;;12.57;44.24;93751.66;5092463;28;20024;-41
2022/02/11 15:24:09;;;;;;;11.77;6.32;;;;;;;12.28;44.85;93744.78;5092328;28;20032;-40